Terminal Aerodrome Forecast
Issued by NWS Huntsville, AL

Home | Current Version | Previous Version | Text Only | Print | Product List | Glossary On
Versions: 1 2 3 4 5 6 7 8 9 10 11 12 13 14 15 16
000
FTUS44 KHUN 271120
TAFHSV
TAF
KHSV 271120Z 2712/2812 22009KT P6SM BKN030
      TEMPO 2712/2714 BKN015
     FM271700 26009KT P6SM SCT025 SCT050
     FM280100 VRB04KT P6SM FEW250
     FM280800 12007KT P6SM SCT025 BKN250=

USA.gov is the U.S. government's official web portal to all federal, state and local government web resources and services.